Time;durP1;ratioP1;P1;durP2;ratioP2;P2;SDS_P1;SDS_P2;PMS_P1;PMS_P2;Temp;Humidity;BMP_temperature;BMP_pressure;BME280_temperature;BME280_humidity;BME280_pressure;Samples;Min_cycle;Max_cycle;Signal;HPM_P1;HPM_P2
2023/08/28 00:00:59;;;;;;;2.40;1.70;;;15.50;99.90;;;;;;4997507;28;20194;-80
2023/08/28 00:03:24;;;;;;;2.03;1.50;;;15.60;99.90;;;;;;5006653;28;20178;-82
2023/08/28 00:05:50;;;;;;;2.57;1.47;;;16.40;99.90;;;;;;5001028;28;20448;-83
2023/08/28 00:08:15;;;;;;;2.60;1.10;;;15.60;99.90;;;;;;4996178;28;20194;-82
2023/08/28 00:10:41;;;;;;;2.00;1.23;;;15.70;99.90;;;;;;5002002;28;20213;-82
2023/08/28 00:13:06;;;;;;;2.50;1.60;;;15.60;99.90;;;;;;5014724;28;20221;-83
2023/08/28 00:15:32;;;;;;;3.17;1.50;;;15.60;99.90;;;;;;5007899;28;20542;-81
2023/08/28 00:17:57;;;;;;;4.87;1.60;;;15.50;99.90;;;;;;5004148;28;20245;-82
2023/08/28 00:20:23;;;;;;;4.57;1.50;;;15.50;99.90;;;;;;4997488;28;20200;-82
2023/08/28 00:22:49;;;;;;;4.33;1.20;;;15.40;99.90;;;;;;5001415;28;20673;-82
2023/08/28 00:25:14;;;;;;;3.00;1.73;;;15.40;99.90;;;;;;4999025;28;20186;-82
2023/08/28 00:27:40;;;;;;;3.27;1.53;;;15.40;99.90;;;;;;5002010;28;20433;-79
2023/08/28 00:30:07;;;;;;;3.37;1.90;;;15.30;99.90;;;;;;4997080;28;20794;-81
2023/08/28 00:32:34;;;;;;;2.87;2.00;;;15.30;99.90;;;;;;4997048;28;20207;-80
2023/08/28 00:34:59;;;;;;;2.20;1.63;;;15.40;99.90;;;;;;5013469;28;20849;-85
2023/08/28 00:37:25;;;;;;;2.73;1.70;;;15.40;99.90;;;;;;5007260;28;20442;-78
2023/08/28 00:39:50;;;;;;;5.73;1.90;;;15.40;99.90;;;;;;4995149;28;20179;-79
2023/08/28 00:42:16;;;;;;;2.30;1.40;;;15.50;99.90;;;;;;5002808;28;20218;-81
2023/08/28 00:44:41;;;;;;;3.63;1.90;;;15.50;99.90;;;;;;5005681;28;20210;-85
2023/08/28 00:47:10;;;;;;;4.43;1.80;;;15.50;99.90;;;;;;5002951;28;20194;-80
2023/08/28 00:49:36;;;;;;;2.67;1.73;;;15.60;99.90;;;;;;5002516;28;20187;-83
2023/08/28 00:52:02;;;;;;;2.73;1.90;;;15.60;99.90;;;;;;4993440;28;20477;-84
2023/08/28 00:54:28;;;;;;;1.33;1.23;;;15.50;99.90;;;;;;4996519;28;20183;-80
2023/08/28 00:56:54;;;;;;;2.90;2.27;;;15.40;99.90;;;;;;4996677;28;20466;-81
2023/08/28 00:59:20;;;;;;;3.53;1.70;;;15.40;99.90;;;;;;5002216;28;20175;-82
2023/08/28 01:01:46;;;;;;;2.23;1.60;;;15.30;99.90;;;;;;4998952;28;21494;-81
2023/08/28 01:04:11;;;;;;;3.10;1.83;;;15.30;99.90;;;;;;4997563;28;20436;-82
2023/08/28 01:07:19;;;;;;;1.50;1.40;;;15.30;99.90;;;;;;4995975;28;20241;-82
2023/08/28 01:09:53;;;;;;;3.33;1.93;;;15.20;99.90;;;;;;4980910;28;20194;-81
2023/08/28 01:12:31;;;;;;;7.80;2.07;;;15.30;99.90;;;;;;4993997;28;20465;-82
2023/08/28 01:15:04;;;;;;;4.13;1.47;;;15.30;99.90;;;;;;4996511;28;20456;-82
2023/08/28 01:17:31;;;;;;;3.30;1.67;;;15.30;99.90;;;;;;5005671;28;20444;-76
2023/08/28 01:19:58;;;;;;;2.80;1.67;;;15.40;99.90;;;;;;5006176;28;20446;-77
2023/08/28 01:22:42;;;;;;;4.40;1.90;;;15.40;99.90;;;;;;5013293;28;20456;-78
2023/08/28 01:25:12;;;;;;;2.40;1.50;;;15.40;99.90;;;;;;5004929;28;20434;-82
2023/08/28 01:27:41;;;;;;;3.30;1.80;;;15.40;99.90;;;;;;5000426;28;20877;-81
2023/08/28 01:30:15;;;;;;;3.40;1.60;;;15.40;99.90;;;;;;4997771;28;20434;-80
2023/08/28 01:32:42;;;;;;;3.53;2.10;;;15.30;99.90;;;;;;5003398;28;21044;-80
2023/08/28 01:35:21;;;;;;;2.57;1.33;;;15.30;99.90;;;;;;5003187;28;20437;-82
2023/08/28 01:38:16;;;;;;;3.07;1.77;;;15.40;99.90;;;;;;4997441;28;20484;-80
2023/08/28 01:41:03;;;;;;;4.03;1.60;;;15.40;99.90;;;;;;4998961;28;20521;-83
2023/08/28 01:43:35;;;;;;;5.53;1.73;;;15.60;99.90;;;;;;4995902;28;20433;-79
2023/08/28 01:46:01;;;;;;;2.90;2.03;;;15.40;99.90;;;;;;4990648;28;20441;-83
2023/08/28 01:48:27;;;;;;;2.90;2.00;;;15.30;99.90;;;;;;4992588;28;20507;-82
2023/08/28 01:50:53;;;;;;;2.90;1.73;;;15.30;99.90;;;;;;4989851;28;20470;-84
2023/08/28 01:53:19;;;;;;;2.10;1.70;;;15.30;99.90;;;;;;4996888;28;20483;-83
2023/08/28 01:55:45;;;;;;;5.17;1.50;;;15.40;99.90;;;;;;5003661;28;20524;-80
2023/08/28 01:58:11;;;;;;;4.97;1.60;;;15.40;99.90;;;;;;4997887;28;20953;-80
2023/08/28 02:00:37;;;;;;;2.10;1.60;;;15.40;99.90;;;;;;5000663;28;20211;-82
2023/08/28 02:03:03;;;;;;;4.40;2.10;;;15.40;99.90;;;;;;5004484;28;20446;-82
2023/08/28 02:05:29;;;;;;;3.40;1.80;;;15.30;99.90;;;;;;5006682;28;20194;-82
2023/08/28 02:07:54;;;;;;;2.47;1.67;;;15.30;99.90;;;;;;5003446;28;20932;-83
2023/08/28 02:10:20;;;;;;;8.57;1.70;;;15.30;99.90;;;;;;4999941;28;20189;-80
2023/08/28 02:12:45;;;;;;;3.73;1.83;;;15.30;99.90;;;;;;4999330;28;20788;-82
2023/08/28 02:15:11;;;;;;;3.40;1.90;;;15.30;99.90;;;;;;5001832;28;20277;-83
2023/08/28 02:17:37;;;;;;;3.87;1.90;;;15.10;99.90;;;;;;5000531;28;20183;-81
2023/08/28 02:20:03;;;;;;;3.33;1.80;;;15.10;99.90;;;;;;4997199;28;20175;-82
2023/08/28 02:22:28;;;;;;;6.33;2.30;;;15.00;99.90;;;;;;5000317;28;20846;-75
2023/08/28 02:24:54;;;;;;;2.43;2.03;;;15.10;99.90;;;;;;5014357;28;20588;-85
2023/08/28 02:27:19;;;;;;;5.23;1.90;;;15.10;99.90;;;;;;5016838;28;20507;-80
2023/08/28 02:29:45;;;;;;;2.63;1.90;;;15.10;99.90;;;;;;5006999;28;20183;-81
2023/08/28 02:32:10;;;;;;;1.80;1.60;;;15.00;99.90;;;;;;5006178;28;20660;-81
2023/08/28 02:34:36;;;;;;;4.10;2.33;;;14.90;99.90;;;;;;5002707;28;20176;-81
2023/08/28 02:37:01;;;;;;;3.97;2.47;;;14.90;99.90;;;;;;5005081;28;20767;-84
2023/08/28 02:39:27;;;;;;;6.97;2.40;;;14.90;99.90;;;;;;5004667;28;20198;-81
2023/08/28 02:41:52;;;;;;;7.77;2.63;;;14.90;99.90;;;;;;5003066;28;20257;-77
2023/08/28 02:44:18;;;;;;;2.50;1.97;;;14.90;99.90;;;;;;5005767;28;20195;-82
2023/08/28 02:46:43;;;;;;;3.77;1.80;;;14.90;99.90;;;;;;5003177;28;20187;-81
2023/08/28 02:49:09;;;;;;;8.30;2.17;;;14.80;99.90;;;;;;4999915;28;20187;-81
2023/08/28 02:51:35;;;;;;;3.03;1.70;;;14.60;99.90;;;;;;4996997;28;20210;-80
2023/08/28 02:54:01;;;;;;;3.60;1.87;;;14.60;99.90;;;;;;4997342;28;20438;-79
2023/08/28 02:56:39;;;;;;;6.70;2.60;;;14.60;99.90;;;;;;5002765;28;20421;-83
2023/08/28 02:59:05;;;;;;;4.73;2.60;;;14.60;99.90;;;;;;4998557;28;20202;-82
2023/08/28 03:01:36;;;;;;;6.10;2.63;;;14.60;99.90;;;;;;5000701;28;21004;-82
2023/08/28 03:04:06;;;;;;;2.83;1.97;;;14.70;99.90;;;;;;4995569;28;20951;-80
2023/08/28 03:06:38;;;;;;;3.53;1.83;;;14.70;99.90;;;;;;4999025;28;20418;-82
2023/08/28 03:09:04;;;;;;;5.10;1.77;;;14.70;99.90;;;;;;5002009;28;20430;-79
2023/08/28 03:11:30;;;;;;;4.93;2.40;;;14.70;99.90;;;;;;5004789;28;20498;-79
2023/08/28 03:13:56;;;;;;;6.63;1.70;;;14.60;99.90;;;;;;5002433;28;21160;-81
2023/08/28 03:16:21;;;;;;;8.23;2.53;;;14.60;99.90;;;;;;5010539;28;20175;-82
2023/08/28 03:18:47;;;;;;;2.83;2.37;;;14.70;99.90;;;;;;5006348;28;20182;-82
2023/08/28 03:21:13;;;;;;;11.83;3.90;;;14.70;99.90;;;;;;4997378;28;20249;-78
2023/08/28 03:23:38;;;;;;;9.73;3.70;;;14.70;99.90;;;;;;5006860;28;20786;-83
2023/08/28 03:26:04;;;;;;;4.43;3.10;;;14.60;99.90;;;;;;5001133;28;20914;-82
2023/08/28 03:28:30;;;;;;;3.70;3.20;;;14.60;99.90;;;;;;5000382;28;20186;-79
2023/08/28 03:30:57;;;;;;;3.23;2.93;;;14.60;99.90;;;;;;5017108;28;20202;-81
2023/08/28 03:33:22;;;;;;;4.73;3.10;;;14.60;99.90;;;;;;5007669;28;21245;-81
2023/08/28 03:35:48;;;;;;;5.80;3.43;;;14.60;99.90;;;;;;5001964;28;20446;-83
2023/08/28 03:38:13;;;;;;;5.77;3.00;;;14.60;99.90;;;;;;5009792;28;20604;-80
2023/08/28 03:40:39;;;;;;;7.23;2.93;;;15.20;99.90;;;;;;5003439;28;20634;-78
2023/08/28 03:43:04;;;;;;;3.33;2.43;;;14.70;99.90;;;;;;5001951;28;20201;-80
2023/08/28 03:45:30;;;;;;;3.93;2.50;;;14.70;99.90;;;;;;5001289;28;20857;-84
2023/08/28 03:47:56;;;;;;;7.53;3.90;;;14.70;99.90;;;;;;4999090;28;20194;-81
2023/08/28 03:50:22;;;;;;;2.77;2.57;;;14.70;99.90;;;;;;5000334;28;20444;-83
2023/08/28 03:52:47;;;;;;;4.90;2.67;;;14.80;99.90;;;;;;5003515;28;20256;-81
2023/08/28 03:55:13;;;;;;;3.13;2.80;;;14.80;99.90;;;;;;5002663;28;20194;-81
2023/08/28 03:57:38;;;;;;;4.57;3.20;;;14.80;99.90;;;;;;4999425;28;20178;-83
2023/08/28 04:00:10;;;;;;;4.20;2.77;;;14.80;99.90;;;;;;4996608;28;20194;-82
2023/08/28 04:02:37;;;;;;;3.67;2.87;;;14.80;99.90;;;;;;4997100;28;20193;-75
2023/08/28 04:05:04;;;;;;;5.60;3.00;;;14.90;99.90;;;;;;5008421;28;20448;-82
2023/08/28 04:07:31;;;;;;;8.10;2.90;;;14.90;99.90;;;;;;5003996;28;20430;-79
2023/08/28 04:09:57;;;;;;;6.80;2.57;;;14.80;99.90;;;;;;4994790;28;20445;-81
2023/08/28 04:12:23;;;;;;;5.73;3.13;;;14.90;99.90;;;;;;4994791;28;20887;-80
2023/08/28 04:14:48;;;;;;;9.20;3.70;;;14.80;99.90;;;;;;4997922;28;21176;-80
2023/08/28 04:17:14;;;;;;;4.20;3.10;;;14.80;99.90;;;;;;4996783;28;20694;-80
2023/08/28 04:19:40;;;;;;;5.80;3.53;;;14.80;99.90;;;;;;4997440;28;20225;-80
2023/08/28 04:22:06;;;;;;;4.87;3.53;;;14.60;99.90;;;;;;4996903;28;20206;-81
2023/08/28 04:24:31;;;;;;;6.37;3.47;;;14.50;99.90;;;;;;4996678;28;20806;-80
2023/08/28 04:26:57;;;;;;;8.47;3.33;;;14.40;99.90;;;;;;4998620;28;20281;-83
2023/08/28 04:29:22;;;;;;;3.40;3.03;;;14.30;99.90;;;;;;4992525;28;20171;-82
2023/08/28 04:31:48;;;;;;;4.73;3.20;;;14.20;99.90;;;;;;4996970;28;20206;-79
2023/08/28 04:34:14;;;;;;;9.13;3.40;;;14.20;99.90;;;;;;5000509;28;20193;-83
2023/08/28 04:36:39;;;;;;;3.90;2.97;;;14.20;99.90;;;;;;5013705;28;20295;-75
2023/08/28 04:39:05;;;;;;;4.40;3.23;;;14.20;99.90;;;;;;5010098;28;20438;-80
2023/08/28 04:41:31;;;;;;;5.27;2.83;;;14.10;99.90;;;;;;5004381;28;20207;-81
2023/08/28 04:43:56;;;;;;;4.40;3.00;;;14.10;99.90;;;;;;5012896;28;20202;-82
2023/08/28 04:46:22;;;;;;;4.60;2.87;;;14.20;99.90;;;;;;4999828;28;20221;-83
2023/08/28 04:48:48;;;;;;;4.90;3.00;;;14.30;99.90;;;;;;5000241;28;20182;-80
2023/08/28 04:51:14;;;;;;;5.33;2.93;;;14.20;99.90;;;;;;4995835;28;20408;-82
2023/08/28 04:53:39;;;;;;;8.13;3.67;;;14.20;99.90;;;;;;4998841;28;20909;-81
2023/08/28 04:56:05;;;;;;;7.63;3.23;;;14.10;99.90;;;;;;4996422;28;20846;-83
2023/08/28 04:58:30;;;;;;;7.73;3.97;;;14.00;99.90;;;;;;4993738;28;20179;-82
2023/08/28 05:00:56;;;;;;;9.13;2.67;;;14.00;99.90;;;;;;4992449;28;20289;-84
2023/08/28 05:03:22;;;;;;;4.13;3.00;;;14.00;99.90;;;;;;4998778;28;20187;-82
2023/08/28 05:05:48;;;;;;;4.30;2.70;;;13.90;99.90;;;;;;4996764;28;20190;-80
2023/08/28 05:08:15;;;;;;;6.67;3.20;;;13.90;99.90;;;;;;4995879;28;20273;-77
2023/08/28 05:10:40;;;;;;;6.90;3.23;;;14.00;99.90;;;;;;5001261;28;20445;-79
2023/08/28 05:13:06;;;;;;;7.40;3.60;;;14.00;99.90;;;;;;4998096;28;20565;-79
2023/08/28 05:15:31;;;;;;;7.73;3.10;;;14.00;99.90;;;;;;4999569;28;20702;-79
2023/08/28 05:17:57;;;;;;;7.00;3.20;;;14.00;99.90;;;;;;4999357;28;20199;-82
2023/08/28 05:20:22;;;;;;;5.97;3.13;;;14.10;99.90;;;;;;4996037;28;20179;-78
2023/08/28 05:22:48;;;;;;;7.50;2.73;;;14.30;99.90;;;;;;5003093;28;20645;-81
2023/08/28 05:25:13;;;;;;;6.60;2.80;;;14.30;99.90;;;;;;5003072;28;20266;-81
2023/08/28 05:27:39;;;;;;;6.00;3.00;;;14.30;99.90;;;;;;5004808;28;20302;-84
2023/08/28 05:30:06;;;;;;;6.87;3.40;;;14.30;99.90;;;;;;5001592;28;20242;-80
2023/08/28 05:32:32;;;;;;;14.33;4.20;;;14.30;99.90;;;;;;5001355;28;20194;-83
2023/08/28 05:34:58;;;;;;;9.27;3.47;;;14.30;99.90;;;;;;5001009;28;20453;-82
2023/08/28 05:37:25;;;;;;;6.17;4.13;;;14.40;99.90;;;;;;4999985;28;20809;-81
2023/08/28 05:39:51;;;;;;;4.23;3.47;;;14.50;99.90;;;;;;5000447;28;20883;-83
2023/08/28 05:42:16;;;;;;;7.30;3.47;;;14.60;99.90;;;;;;5003772;28;20465;-84
2023/08/28 05:44:42;;;;;;;6.67;3.07;;;14.60;99.90;;;;;;5013750;28;20465;-83
2023/08/28 05:47:08;;;;;;;5.20;3.53;;;14.70;99.90;;;;;;5009550;28;20185;-83
2023/08/28 05:49:34;;;;;;;8.27;4.70;;;14.70;99.90;;;;;;5000149;28;20471;-81
2023/08/28 05:51:59;;;;;;;13.80;8.90;;;14.70;99.90;;;;;;5005790;28;20495;-80
2023/08/28 05:54:25;;;;;;;7.57;5.67;;;14.70;99.90;;;;;;5005315;28;20191;-81
2023/08/28 05:56:51;;;;;;;6.30;4.50;;;14.60;99.90;;;;;;5006905;28;20194;-80
2023/08/28 05:59:16;;;;;;;10.50;4.27;;;14.70;99.90;;;;;;5002455;28;20861;-83
2023/08/28 06:01:42;;;;;;;8.97;5.20;;;14.60;99.90;;;;;;5009930;28;20681;-82
2023/08/28 06:04:07;;;;;;;8.60;5.03;;;14.70;99.90;;;;;;5007641;28;20240;-81
2023/08/28 06:06:33;;;;;;;14.30;6.80;;;14.70;99.90;;;;;;5005907;28;20197;-84
2023/08/28 06:09:03;;;;;;;9.40;6.87;;;14.70;99.90;;;;;;5001585;28;20187;-82
2023/08/28 06:11:29;;;;;;;7.83;6.23;;;14.70;99.90;;;;;;5000536;28;20694;-77
2023/08/28 06:13:54;;;;;;;7.60;4.80;;;14.80;99.90;;;;;;4999539;28;20461;-84
2023/08/28 06:16:20;;;;;;;6.50;5.40;;;14.90;99.90;;;;;;5003432;28;20186;-80
2023/08/28 06:18:45;;;;;;;8.40;4.53;;;14.90;99.90;;;;;;5002658;28;20261;-84
2023/08/28 06:21:11;;;;;;;9.00;5.73;;;15.10;99.90;;;;;;4996391;28;20203;-82
2023/08/28 06:23:37;;;;;;;19.73;9.97;;;15.10;99.90;;;;;;5000188;28;20205;-83
2023/08/28 06:26:03;;;;;;;22.37;12.77;;;15.10;99.90;;;;;;4998129;28;20495;-77
2023/08/28 06:28:29;;;;;;;19.97;13.27;;;15.20;99.90;;;;;;4994701;28;20262;-80
2023/08/28 06:30:55;;;;;;;17.67;11.07;;;15.30;99.90;;;;;;5001530;28;20544;-79
2023/08/28 06:33:21;;;;;;;17.77;9.47;;;15.20;99.90;;;;;;5002590;28;20867;-82
2023/08/28 06:35:47;;;;;;;15.50;8.67;;;15.30;99.90;;;;;;4998696;28;21218;-79
2023/08/28 06:38:13;;;;;;;14.83;6.87;;;15.30;99.90;;;;;;4998394;28;20524;-80
2023/08/28 06:40:39;;;;;;;6.50;5.80;;;15.30;99.90;;;;;;4999244;28;20548;-80
2023/08/28 06:43:04;;;;;;;7.50;4.90;;;15.20;99.90;;;;;;5012514;28;20462;-81
2023/08/28 06:45:31;;;;;;;6.97;4.90;;;15.30;99.90;;;;;;5004190;28;20197;-81
2023/08/28 06:47:57;;;;;;;6.93;5.77;;;15.30;99.90;;;;;;5004837;28;20279;-82
2023/08/28 06:50:23;;;;;;;7.10;4.70;;;15.30;99.90;;;;;;4999309;28;20449;-79
2023/08/28 06:52:49;;;;;;;7.53;5.57;;;15.50;99.90;;;;;;5014886;28;20480;-83
2023/08/28 06:55:15;;;;;;;6.97;5.73;;;15.70;99.90;;;;;;5008643;28;20438;-82
2023/08/28 06:57:41;;;;;;;12.87;7.77;;;15.80;99.90;;;;;;5012697;28;20410;-81
2023/08/28 07:00:08;;;;;;;7.23;5.50;;;15.80;99.90;;;;;;5002023;28;20441;-82
2023/08/28 07:02:36;;;;;;;7.07;6.13;;;15.90;99.90;;;;;;5010535;28;20184;-80
2023/08/28 07:05:01;;;;;;;10.73;5.67;;;15.90;99.90;;;;;;5003161;28;20442;-80
2023/08/28 07:07:27;;;;;;;11.63;5.90;;;16.10;99.90;;;;;;5000961;28;20504;-81
2023/08/28 07:09:52;;;;;;;7.40;5.57;;;16.10;99.90;;;;;;5003550;28;20242;-82
2023/08/28 07:12:18;;;;;;;9.70;6.77;;;16.10;99.90;;;;;;5002318;28;20207;-80
2023/08/28 07:14:43;;;;;;;8.70;5.77;;;16.20;99.90;;;;;;5002107;28;20225;-84
2023/08/28 07:17:09;;;;;;;9.23;5.37;;;16.50;99.90;;;;;;5001924;28;20182;-81
2023/08/28 07:19:34;;;;;;;5.70;5.10;;;16.30;99.90;;;;;;5000965;28;20187;-81
2023/08/28 07:22:00;;;;;;;8.47;5.60;;;16.20;99.90;;;;;;5006132;28;20788;-82
2023/08/28 07:24:27;;;;;;;6.73;6.03;;;16.40;99.90;;;;;;5007765;28;20324;-82
2023/08/28 07:26:52;;;;;;;10.80;6.20;;;16.20;99.90;;;;;;5009457;28;20190;-78
2023/08/28 07:29:17;;;;;;;7.43;5.30;;;16.10;99.90;;;;;;5001289;28;20437;-79
2023/08/28 07:31:44;;;;;;;11.53;4.97;;;16.30;99.90;;;;;;5009185;28;20203;-81
2023/08/28 07:34:09;;;;;;;6.13;4.50;;;16.50;99.90;;;;;;5003234;28;20182;-83
2023/08/28 07:36:37;;;;;;;5.30;4.00;;;16.60;99.90;;;;;;4998975;28;20492;-81
2023/08/28 07:39:03;;;;;;;6.30;4.23;;;16.50;99.90;;;;;;5012266;28;20214;-80
2023/08/28 07:41:28;;;;;;;8.30;4.83;;;16.40;99.90;;;;;;4997778;28;21023;-80
2023/08/28 07:43:54;;;;;;;6.10;4.40;;;16.20;99.90;;;;;;4997943;28;20194;-85
2023/08/28 07:46:19;;;;;;;7.23;4.00;;;16.10;99.90;;;;;;5004099;28;20212;-79
2023/08/28 07:48:45;;;;;;;9.37;4.57;;;16.10;99.90;;;;;;4996955;28;20187;-79
2023/08/28 07:51:11;;;;;;;6.60;4.37;;;16.00;99.90;;;;;;4995888;28;20627;-83
2023/08/28 07:53:37;;;;;;;4.63;3.40;;;16.00;99.90;;;;;;4995106;28;20199;-82
2023/08/28 07:56:03;;;;;;;3.37;2.80;;;15.90;99.90;;;;;;4994150;28;20617;-83
2023/08/28 07:58:29;;;;;;;6.93;3.33;;;15.90;99.90;;;;;;4998304;28;20454;-80
2023/08/28 08:00:56;;;;;;;3.90;2.90;;;15.90;99.90;;;;;;5013284;28;20203;-82
2023/08/28 08:03:22;;;;;;;2.73;2.40;;;16.20;99.90;;;;;;5002432;28;20433;-78
2023/08/28 08:05:47;;;;;;;3.80;2.77;;;16.30;99.90;;;;;;5003320;28;20972;-83
2023/08/28 08:08:13;;;;;;;6.53;2.90;;;16.40;99.90;;;;;;5006302;28;20238;-80
2023/08/28 08:10:39;;;;;;;3.70;2.60;;;16.60;99.90;;;;;;4999542;28;20201;-82
2023/08/28 08:13:04;;;;;;;5.10;2.47;;;16.80;99.90;;;;;;5000942;28;20278;-84
2023/08/28 08:15:31;;;;;;;7.80;2.90;;;17.10;99.90;;;;;;4999784;28;20179;-82
2023/08/28 08:17:57;;;;;;;3.43;1.93;;;17.30;99.90;;;;;;4999214;28;20495;-82
2023/08/28 08:20:22;;;;;;;2.93;2.50;;;17.40;99.90;;;;;;4995629;28;20967;-79
2023/08/28 08:22:48;;;;;;;4.30;2.77;;;17.50;99.90;;;;;;4998543;28;20183;-81
2023/08/28 08:25:14;;;;;;;2.93;1.90;;;17.40;99.90;;;;;;4998055;28;20183;-81
2023/08/28 08:27:39;;;;;;;4.10;2.40;;;17.50;99.90;;;;;;4998478;28;20186;-79
2023/08/28 08:30:07;;;;;;;3.37;2.77;;;17.60;99.90;;;;;;4996323;28;20238;-80
2023/08/28 08:32:32;;;;;;;3.30;2.83;;;17.70;99.90;;;;;;4996251;28;20206;-80
2023/08/28 08:34:59;;;;;;;4.83;2.37;;;18.00;99.90;;;;;;4996402;28;20445;-82
2023/08/28 08:37:28;;;;;;;3.60;2.60;;;17.90;99.90;;;;;;4998536;28;20198;-85
2023/08/28 08:39:54;;;;;;;4.00;3.60;;;17.90;99.90;;;;;;4992410;28;20537;-81
2023/08/28 08:42:20;;;;;;;4.50;2.73;;;18.00;99.90;;;;;;4998815;28;21182;-80
2023/08/28 08:44:45;;;;;;;4.17;3.07;;;18.00;99.90;;;;;;5006435;28;20181;-82
2023/08/28 08:47:11;;;;;;;4.47;3.00;;;17.80;99.90;;;;;;5003076;28;20430;-80
2023/08/28 08:49:39;;;;;;;5.50;3.00;;;17.80;99.90;;;;;;4997268;28;20186;-81
2023/08/28 08:52:08;;;;;;;4.20;3.07;;;18.00;99.90;;;;;;5000892;28;20465;-80
2023/08/28 08:54:39;;;;;;;3.20;2.80;;;18.20;99.90;;;;;;4994793;28;20419;-80
2023/08/28 08:57:10;;;;;;;3.50;2.40;;;18.20;99.90;;;;;;4996711;28;20433;-82
2023/08/28 08:59:36;;;;;;;4.70;3.00;;;17.90;99.90;;;;;;4995312;28;20616;-81
2023/08/28 09:02:03;;;;;;;4.97;2.63;;;17.80;99.90;;;;;;4996329;28;20541;-82
2023/08/28 09:04:30;;;;;;;8.50;3.23;;;17.90;99.90;;;;;;4996896;28;20186;-81
2023/08/28 09:06:58;;;;;;;4.80;3.20;;;18.00;99.90;;;;;;4996078;28;20580;-80
2023/08/28 09:09:23;;;;;;;5.40;3.13;;;17.90;99.90;;;;;;5003669;28;20437;-83
2023/08/28 09:11:49;;;;;;;3.40;2.03;;;18.10;99.90;;;;;;5009117;28;20466;-79
2023/08/28 09:14:15;;;;;;;6.20;3.20;;;18.10;99.90;;;;;;4997654;28;20178;-79
2023/08/28 09:16:41;;;;;;;4.20;2.57;;;18.20;99.90;;;;;;5000127;28;20186;-82
2023/08/28 09:19:07;;;;;;;3.60;3.13;;;17.90;99.90;;;;;;4995528;28;20446;-84
2023/08/28 09:21:37;;;;;;;7.23;3.10;;;17.70;99.90;;;;;;5001760;28;20485;-79
2023/08/28 09:24:07;;;;;;;5.10;3.10;;;17.90;99.90;;;;;;5002741;28;20437;-81
2023/08/28 09:26:33;;;;;;;5.33;2.90;;;18.40;99.90;;;;;;5006062;28;20432;-79
2023/08/28 09:29:00;;;;;;;4.97;2.50;;;18.90;99.90;;;;;;4999928;28;20469;-82
2023/08/28 09:31:40;;;;;;;8.60;3.00;;;19.10;99.90;;;;;;5010931;28;20389;-81
2023/08/28 09:34:06;;;;;;;8.17;3.83;;;19.10;99.90;;;;;;5002353;28;20484;-83
2023/08/28 09:36:36;;;;;;;7.00;3.17;;;19.30;99.90;;;;;;4995876;28;20657;-81
2023/08/28 09:39:06;;;;;;;8.77;2.90;;;19.30;99.90;;;;;;4990384;28;20457;-81
2023/08/28 09:41:48;;;;;;;3.10;2.50;;;19.20;99.90;;;;;;4997490;28;21043;-83
2023/08/28 09:44:21;;;;;;;3.83;2.70;;;19.50;99.90;;;;;;4997588;28;20437;-79
2023/08/28 09:46:49;;;;;;;4.40;3.00;;;19.00;99.90;;;;;;5002194;28;20452;-82
2023/08/28 09:49:14;;;;;;;6.40;3.43;;;18.70;99.90;;;;;;4997269;28;21147;-82
2023/08/28 09:51:45;;;;;;;2.77;2.03;;;18.40;99.90;;;;;;4993317;28;20457;-79
2023/08/28 09:54:12;;;;;;;4.17;3.10;;;18.20;99.90;;;;;;4995448;28;20171;-81
2023/08/28 09:56:38;;;;;;;2.57;2.00;;;18.20;99.90;;;;;;4994330;28;20590;-80
2023/08/28 09:59:06;;;;;;;3.20;2.70;;;18.20;99.90;;;;;;5003755;28;20428;-82
2023/08/28 10:01:34;;;;;;;2.30;1.93;;;18.50;99.90;;;;;;5006705;28;20465;-80
2023/08/28 10:04:03;;;;;;;2.60;2.13;;;18.60;99.90;;;;;;4999657;28;20527;-78
2023/08/28 10:06:33;;;;;;;8.80;2.57;;;18.30;99.90;;;;;;5006437;28;20425;-77
2023/08/28 10:09:00;;;;;;;6.87;2.90;;;18.20;99.90;;;;;;5002365;28;20456;-83
2023/08/28 10:11:36;;;;;;;3.73;2.30;;;18.20;99.90;;;;;;5004042;28;20462;-82
2023/08/28 10:14:04;;;;;;;4.13;2.00;;;18.40;99.90;;;;;;5002979;28;20484;-80
2023/08/28 10:16:54;;;;;;;8.43;1.97;;;18.70;99.90;;;;;;5002348;28;20480;-80
2023/08/28 10:19:26;;;;;;;2.70;2.20;;;18.60;99.90;;;;;;5002189;28;20442;-83
2023/08/28 10:21:53;;;;;;;3.20;2.00;;;18.60;99.90;;;;;;4999798;28;20478;-79
2023/08/28 10:24:19;;;;;;;3.70;1.80;;;18.70;99.90;;;;;;5012629;28;20456;-77
2023/08/28 10:26:46;;;;;;;2.13;1.70;;;18.80;99.90;;;;;;5003683;28;20461;-81
2023/08/28 10:29:17;;;;;;;3.50;1.97;;;18.70;99.90;;;;;;4998759;28;20813;-84
2023/08/28 10:31:43;;;;;;;1.70;1.60;;;18.70;99.90;;;;;;5006308;28;21131;-83
2023/08/28 10:34:11;;;;;;;3.17;2.30;;;19.20;99.90;;;;;;4997040;28;20505;-79
2023/08/28 10:36:38;;;;;;;2.47;1.77;;;19.60;99.90;;;;;;4999717;28;20436;-78
2023/08/28 10:39:04;;;;;;;3.43;1.77;;;19.70;99.90;;;;;;5005304;28;20458;-80
2023/08/28 10:41:31;;;;;;;2.30;1.70;;;19.50;99.90;;;;;;5004537;28;20489;-82
2023/08/28 10:43:59;;;;;;;1.83;1.57;;;19.20;99.90;;;;;;4997610;28;20532;-82
2023/08/28 10:46:28;;;;;;;3.00;1.70;;;19.90;99.90;;;;;;5004545;28;20984;-79
2023/08/28 10:49:03;;;;;;;2.70;1.67;;;19.50;99.90;;;;;;5002099;28;20473;-81
2023/08/28 10:51:38;;;;;;;2.60;1.80;;;19.30;99.90;;;;;;5003969;28;20517;-83
2023/08/28 10:54:08;;;;;;;3.83;1.73;;;19.30;99.90;;;;;;5000686;28;20450;-81
2023/08/28 10:56:37;;;;;;;1.83;1.70;;;19.50;99.90;;;;;;5001278;28;20425;-83
2023/08/28 10:59:17;;;;;;;4.07;1.50;;;19.60;99.90;;;;;;5005065;28;20434;-79
2023/08/28 11:01:57;;;;;;;2.60;1.70;;;20.00;99.90;;;;;;4999073;28;20978;-84
2023/08/28 11:04:24;;;;;;;1.47;1.20;;;19.90;99.90;;;;;;4992401;28;20524;-81
2023/08/28 11:06:50;;;;;;;3.13;1.00;;;19.50;99.90;;;;;;4993452;28;20438;-80
2023/08/28 11:09:28;;;;;;;1.40;1.27;;;19.20;99.90;;;;;;5000004;28;20464;-82
2023/08/28 11:12:00;;;;;;;1.37;1.17;;;19.50;99.90;;;;;;4996481;28;20442;-79
2023/08/28 11:14:38;;;;;;;1.57;1.10;;;19.70;99.90;;;;;;4998734;28;20441;-84
2023/08/28 11:17:07;;;;;;;1.47;1.10;;;20.10;99.90;;;;;;4999518;28;20857;-80
2023/08/28 11:19:53;;;;;;;1.23;0.77;;;21.10;99.90;;;;;;4996832;28;20441;-79
2023/08/28 11:22:37;;;;;;;1.63;1.10;;;21.00;99.90;;;;;;4992729;28;20467;-80
2023/08/28 11:25:09;;;;;;;3.77;1.30;;;21.30;99.90;;;;;;4997014;28;20414;-81
2023/08/28 11:27:42;;;;;;;3.00;1.77;;;21.10;99.90;;;;;;5007654;28;20489;-78
2023/08/28 11:30:08;;;;;;;1.67;1.07;;;20.90;99.90;;;;;;5016215;28;20445;-82
2023/08/28 11:32:35;;;;;;;2.80;1.20;;;21.30;99.90;;;;;;5003692;28;20458;-82
2023/08/28 11:35:05;;;;;;;1.57;1.00;;;21.40;99.90;;;;;;4999642;28;20944;-82
2023/08/28 11:37:36;;;;;;;1.07;0.83;;;22.00;99.90;;;;;;5000889;28;20854;-79
2023/08/28 11:40:08;;;;;;;1.10;0.70;;;21.50;99.90;;;;;;5000390;28;20444;-81
2023/08/28 11:42:34;;;;;;;1.30;0.90;;;21.90;99.90;;;;;;5006931;28;20430;-83
2023/08/28 11:44:59;;;;;;;2.43;1.00;;;22.30;99.90;;;;;;5014323;28;20458;-78
2023/08/28 11:47:27;;;;;;;1.30;0.90;;;21.90;99.90;;;;;;5008599;28;20430;-78
2023/08/28 11:49:54;;;;;;;0.97;0.80;;;21.30;99.90;;;;;;5001095;28;20191;-79
2023/08/28 11:52:20;;;;;;;2.70;1.27;;;21.60;99.90;;;;;;5004395;28;20470;-83
2023/08/28 11:54:46;;;;;;;1.67;0.93;;;21.80;99.90;;;;;;5003627;28;20430;-82
2023/08/28 11:57:15;;;;;;;2.73;0.80;;;21.70;99.90;;;;;;5004703;28;20838;-79
2023/08/28 11:59:41;;;;;;;2.00;0.60;;;21.90;99.90;;;;;;5001561;28;20495;-80
2023/08/28 12:02:08;;;;;;;0.70;0.70;;;21.50;99.90;;;;;;5003123;28;20521;-83
2023/08/28 12:04:37;;;;;;;1.20;1.10;;;21.80;99.90;;;;;;5002792;28;20434;-82
2023/08/28 12:07:05;;;;;;;1.57;0.67;;;;;;;;;;5004167;28;21060;-79
2023/08/28 12:09:31;;;;;;;0.90;0.70;;;22.00;99.90;;;;;;5004710;28;20906;-79
2023/08/28 12:11:57;;;;;;;2.23;1.03;;;21.80;99.90;;;;;;5004195;28;20994;-84
2023/08/28 12:14:24;;;;;;;1.70;1.20;;;21.20;99.90;;;;;;5004640;28;20465;-79
2023/08/28 12:16:50;;;;;;;2.13;0.83;;;20.90;99.90;;;;;;5002152;28;20178;-79
2023/08/28 12:19:22;;;;;;;1.17;0.80;;;20.90;99.90;;;;;;4997818;28;20438;-82
2023/08/28 12:21:47;;;;;;;2.53;1.17;;;21.00;99.90;;;;;;4997974;28;20454;-83
2023/08/28 12:24:13;;;;;;;1.27;0.70;;;20.90;99.90;;;;;;5004109;28;20512;-77
2023/08/28 12:26:43;;;;;;;1.67;1.10;;;20.70;99.90;;;;;;4999897;28;20229;-81
2023/08/28 12:29:08;;;;;;;1.10;0.90;;;20.00;99.90;;;;;;5001919;28;20206;-80
2023/08/28 12:31:35;;;;;;;3.00;1.10;;;19.50;99.90;;;;;;5002070;28;20909;-84
2023/08/28 12:34:07;;;;;;;1.40;0.80;;;19.20;99.90;;;;;;5006698;28;20211;-84
2023/08/28 12:36:47;;;;;;;1.27;0.80;;;19.00;99.90;;;;;;5002804;28;20442;-82
2023/08/28 12:39:17;;;;;;;10.63;1.30;;;19.00;99.90;;;;;;4998543;28;20429;-83
2023/08/28 12:41:51;;;;;;;1.17;0.90;;;19.40;99.90;;;;;;5003165;28;20906;-81
2023/08/28 12:44:16;;;;;;;1.33;0.80;;;19.60;99.90;;;;;;5006884;28;20440;-84
2023/08/28 12:46:42;;;;;;;0.73;0.70;;;19.30;99.90;;;;;;5002455;28;21004;-80